Aviation Digital Data Service (ADDS)

Output produced by METARs form (0556 UTC 06 March 2015)
found at http://aviationweather.gov/adds/metars/
 
KBDR 060535Z 0606/0706 35013KT P6SM SKC 
     FM061000 36006KT P6SM SKC 
     FM062000 VRB03KT P6SM FEW050